Accueil
METAR-TAF:

METAR-TAF

Aéroports :

Aéroport international de Genève

Genève, Suisse

latitude: 46-15N, longitude: 006-08E, altitude: 420 m

Observation

Le bulletin a été fait il y a 29 minutes, à 22:20 UTC
Vent 1 kt de direction variable
Température -3°C
Humidité 100%
Pression 1031 hPa
Visibilité: 7000 m

METAR: LSGG 222220Z VRB01KT 7000 NSC M03/M03 Q1031 NOSIG

Heure: 23:49 (22:49 UTC)

Prévision

Le bulletin a été fait il y a 2 heures et 24 minutes, à 20:25 UTC
Prévision valable du 22 à 21 UTC au 24 à 03 UTC
Vent 3 kt de direction variable
Visibilité: 7000 m

TAF: LSGG 222025Z 2221/2403 VRB03KT 7000 NSC TX04/2315Z TNM03/2306Z

Observations et prévisions météorologiques de plus de 4000 aéroports (messages METAR et TAF).

Les stations disponibles sont représentées par des disques jaunes et rouges sur la carte.

Passer la souris dessus pour voir le nom de la station.

Cliquer dessus pour voir les observations et prévisions météorologiques.

Pour changer de carte: cliquez sur les boutons verts avec une croix noire pour zoomer, sur le bouton vert avec un tiret pour effectuer un zoom arrière, ou sur les flèches vertes pour les cartes adjacentes.


METAR-TAF: